Time;durP1;ratioP1;P1;durP2;ratioP2;P2;SDS_P1;SDS_P2;PMS_P1;PMS_P2;Temp;Humidity;BMP_temperature;BMP_pressure;BME280_temperature;BME280_humidity;BME280_pressure;Samples;Min_cycle;Max_cycle;Signal;HPM_P1;HPM_P2
2022/01/14 00:00:34;;;;;;;38.00;14.00;;;;;2.80;103049.00;;;;5067651;28;20722;-74
2022/01/14 00:03:20;;;;;;;40.20;14.87;;;;;2.60;103039.00;;;;5068277;28;20228;-71
2022/01/14 00:06:08;;;;;;;42.33;14.73;;;;;2.60;103043.00;;;;5067870;28;20327;-70
2022/01/14 00:08:58;;;;;;;42.77;14.37;;;;;2.80;103036.00;;;;5067635;28;20323;-71
2022/01/14 00:11:49;;;;;;;42.63;14.87;;;;;2.90;103043.00;;;;5059504;28;20219;-71
2022/01/14 00:14:39;;;;;;;38.13;14.03;;;;;2.70;103057.00;;;;5060205;28;20288;-69
2022/01/14 00:17:25;;;;;;;40.30;14.03;;;;;2.70;103048.00;;;;5065093;28;20595;-72
2022/01/14 00:20:12;;;;;;;41.80;15.20;;;;;2.90;103042.00;;;;5064580;28;20722;-71
2022/01/14 00:22:59;;;;;;;35.97;13.80;;;;;2.80;103053.00;;;;5060351;28;20326;-71
2022/01/14 00:32:00;;;;;;;39.80;14.73;;;;;2.70;103033.00;;;;5060138;28;20598;-70
2022/01/14 00:34:46;;;;;;;39.77;14.43;;;;;2.60;103030.00;;;;5057399;28;20904;-73
2022/01/14 00:37:33;;;;;;;37.73;14.10;;;;;2.60;103031.00;;;;5053447;28;20247;-72
2022/01/14 00:40:19;;;;;;;40.63;15.17;;;;;2.70;103026.00;;;;5053847;28;20335;-72
2022/01/14 00:43:06;;;;;;;42.37;14.57;;;;;2.70;103022.00;;;;5051793;28;20231;-72
2022/01/14 00:45:53;;;;;;;38.07;13.97;;;;;2.70;103027.00;;;;5074008;28;20342;-70
2022/01/14 00:48:40;;;;;;;41.70;14.70;;;;;2.70;103021.00;;;;5067276;28;20293;-71
2022/01/14 00:51:26;;;;;;;36.50;12.87;;;;;2.70;103017.00;;;;5067808;28;20314;-71
2022/01/14 00:54:13;;;;;;;43.77;14.27;;;;;2.70;103022.00;;;;5076032;28;20224;-69
2022/01/14 00:57:15;;;;;;;34.40;13.63;;;;;2.70;103029.00;;;;5066823;28;20258;-71
2022/01/14 01:00:00;;;;;;;40.40;14.87;;;;;2.70;103037.00;;;;5066819;28;20389;-71
2022/01/14 01:02:47;;;;;;;41.40;15.50;;;;;2.60;103035.00;;;;5066712;28;20231;-71
2022/01/14 01:05:34;;;;;;;48.57;14.53;;;;;2.70;103038.00;;;;5066521;28;20294;-71
2022/01/14 01:08:24;;;;;;;35.23;14.13;;;;;2.70;103031.00;;;;5056613;28;20282;-71
2022/01/14 01:11:11;;;;;;;34.50;12.27;;;;;2.50;103038.00;;;;5061851;28;20247;-71
2022/01/14 01:14:04;;;;;;;39.23;13.60;;;;;2.70;103048.00;;;;5066801;28;20235;-71
2022/01/14 01:16:50;;;;;;;38.47;14.17;;;;;2.70;103045.00;;;;5066965;28;20750;-69
2022/01/14 01:19:36;;;;;;;37.97;13.87;;;;;2.60;103052.00;;;;5065598;28;20240;-69
2022/01/14 01:22:24;;;;;;;37.53;14.00;;;;;2.50;103050.00;;;;5065283;28;20243;-69
2022/01/14 01:25:13;;;;;;;31.13;12.63;;;;;2.70;103056.00;;;;5062261;28;20232;-71
2022/01/14 01:27:59;;;;;;;27.80;11.43;;;;;2.60;103055.00;;;;5066487;28;20235;-71
2022/01/14 01:31:34;;;;;;;28.50;11.30;;;;;2.50;103058.00;;;;5066241;28;20274;-69
2022/01/14 01:34:14;;;;;;;31.27;11.53;;;;;2.50;103051.00;;;;5066035;28;20285;-70
2022/01/14 01:37:01;;;;;;;27.73;10.27;;;;;2.50;103054.00;;;;5066384;28;20343;-70
2022/01/14 01:39:49;;;;;;;27.23;10.80;;;;;2.50;103052.00;;;;5059053;28;20231;-70
2022/01/14 01:42:36;;;;;;;24.73;10.97;;;;;2.50;103049.00;;;;5058772;28;20633;-68
2022/01/14 01:45:25;;;;;;;22.60;10.03;;;;;2.50;103054.00;;;;5065302;28;20274;-70
2022/01/14 01:48:11;;;;;;;20.53;8.43;;;;;2.60;103055.00;;;;5064256;28;21018;-74
2022/01/14 01:50:58;;;;;;;22.47;9.20;;;;;2.50;103064.00;;;;5064390;28;20237;-70
2022/01/14 01:53:45;;;;;;;16.50;7.90;;;;;2.70;103058.00;;;;5059625;28;20226;-69
2022/01/14 01:56:33;;;;;;;16.43;8.33;;;;;2.50;103055.00;;;;5062940;28;20386;-74
2022/01/14 01:59:21;;;;;;;19.37;8.10;;;;;2.60;103058.00;;;;5060788;28;20307;-71
2022/01/14 02:02:07;;;;;;;18.20;8.23;;;;;2.50;103061.00;;;;5063027;28;20231;-70
2022/01/14 02:04:55;;;;;;;17.70;7.77;;;;;2.50;103050.00;;;;5060670;28;20730;-73
2022/01/14 02:07:41;;;;;;;18.50;8.20;;;;;2.50;103037.00;;;;5065541;28;20298;-70
2022/01/14 02:10:27;;;;;;;17.63;8.37;;;;;2.80;103044.00;;;;5064694;28;20232;-69
2022/01/14 02:13:16;;;;;;;20.60;8.27;;;;;2.60;103032.00;;;;5065748;28;20223;-71
2022/01/14 02:16:19;;;;;;;20.33;8.03;;;;;2.50;103045.00;;;;5065549;28;20321;-70
2022/01/14 02:19:15;;;;;;;19.00;8.13;;;;;2.60;103031.00;;;;5065325;28;20227;-70
2022/01/14 02:22:11;;;;;;;17.37;7.10;;;;;2.40;103023.00;;;;5059705;28;20231;-67
2022/01/14 02:25:04;;;;;;;16.13;7.63;;;;;2.40;103025.00;;;;5059188;28;20239;-72
2022/01/14 02:27:50;;;;;;;16.17;8.13;;;;;2.50;103023.00;;;;5065690;28;20232;-69
2022/01/14 02:30:39;;;;;;;21.53;9.10;;;;;2.50;103020.00;;;;5064969;28;20292;-74
2022/01/14 02:33:25;;;;;;;18.57;7.57;;;;;2.60;103018.00;;;;5065340;28;20278;-70
2022/01/14 02:36:12;;;;;;;21.07;7.70;;;;;2.50;103020.00;;;;5064179;28;20309;-72
2022/01/14 02:39:00;;;;;;;18.53;7.83;;;;;2.60;103015.00;;;;5065212;28;20726;-69
2022/01/14 02:41:48;;;;;;;16.43;8.27;;;;;2.60;103016.00;;;;5057449;28;20244;-69
2022/01/14 02:44:35;;;;;;;21.50;7.83;;;;;2.50;103008.00;;;;5065177;28;20228;-66
2022/01/14 02:47:21;;;;;;;14.00;7.47;;;;;2.60;103002.00;;;;5065657;28;20231;-68
2022/01/14 02:50:12;;;;;;;20.10;7.80;;;;;2.50;102993.00;;;;5065500;28;20371;-71
2022/01/14 02:53:01;;;;;;;19.93;7.87;;;;;2.50;102999.00;;;;5058752;28;20270;-70
2022/01/14 02:55:49;;;;;;;14.63;7.77;;;;;2.50;103000.00;;;;5065314;28;20231;-69
2022/01/14 02:58:37;;;;;;;22.77;8.63;;;;;2.80;102998.00;;;;5064949;28;20302;-71
2022/01/14 03:01:25;;;;;;;17.60;8.47;;;;;2.70;102991.00;;;;5062217;28;20718;-71
2022/01/14 03:04:14;;;;;;;26.97;8.23;;;;;2.50;102998.00;;;;5062847;28;20231;-70
2022/01/14 03:07:00;;;;;;;23.20;7.47;;;;;2.50;102992.00;;;;5065172;28;20773;-71
2022/01/14 03:09:46;;;;;;;15.80;7.47;;;;;2.40;102994.00;;;;5065323;28;20233;-70
2022/01/14 03:12:35;;;;;;;20.30;8.07;;;;;2.40;102987.00;;;;5063441;28;20240;-69
2022/01/14 03:15:21;;;;;;;18.83;7.93;;;;;2.50;102994.00;;;;5065075;28;20683;-70
2022/01/14 03:18:07;;;;;;;19.30;8.37;;;;;2.60;102983.00;;;;5064987;28;20877;-69
2022/01/14 03:21:07;;;;;;;17.50;8.17;;;;;2.50;102974.00;;;;5063835;28;20710;-73
2022/01/14 03:24:03;;;;;;;19.43;9.00;;;;;2.50;102976.00;;;;5060590;28;20618;-69
2022/01/14 03:26:52;;;;;;;23.30;7.67;;;;;2.60;102974.00;;;;5065176;28;20233;-69
2022/01/14 03:29:39;;;;;;;16.77;7.93;;;;;2.60;102960.00;;;;5064341;28;20239;-69
2022/01/14 03:32:26;;;;;;;15.80;8.47;;;;;2.40;102962.00;;;;5064265;28;20227;-68
2022/01/14 03:35:13;;;;;;;17.90;7.47;;;;;2.40;102972.00;;;;5060916;28;20240;-68
2022/01/14 03:38:00;;;;;;;20.70;8.53;;;;;2.40;102965.00;;;;5069892;28;20251;-70
2022/01/14 03:40:46;;;;;;;19.27;7.80;;;;;2.60;102966.00;;;;5064422;28;20223;-69
2022/01/14 03:43:33;;;;;;;18.43;8.37;;;;;2.40;102958.00;;;;5064436;28;20228;-69
2022/01/14 03:46:21;;;;;;;18.67;8.00;;;;;2.50;102960.00;;;;5067406;28;20586;-72
2022/01/14 03:49:07;;;;;;;17.00;7.87;;;;;2.40;102965.00;;;;5066789;28;20232;-71
2022/01/14 03:51:53;;;;;;;19.20;8.73;;;;;2.40;102960.00;;;;5059883;28;20593;-73
2022/01/14 03:54:40;;;;;;;20.10;8.30;;;;;2.50;102961.00;;;;5067725;28;20313;-71
2022/01/14 03:57:26;;;;;;;19.07;8.37;;;;;2.60;102959.00;;;;5067805;28;20306;-71
2022/01/14 04:00:13;;;;;;;18.37;8.40;;;;;2.50;102950.00;;;;5060211;28;20255;-71
2022/01/14 04:03:01;;;;;;;21.77;8.97;;;;;2.40;102952.00;;;;5070002;28;20227;-71
2022/01/14 04:05:47;;;;;;;20.30;8.80;;;;;2.60;102960.00;;;;5065687;28;20298;-70
2022/01/14 04:08:35;;;;;;;18.33;8.13;;;;;2.40;102965.00;;;;5066647;28;20224;-71
2022/01/14 04:11:23;;;;;;;19.43;8.77;;;;;2.40;102917.00;;;;5092666;28;20223;-77
2022/01/14 04:15:36;;;;;;;23.33;9.50;;;;;2.40;102968.00;;;;5094716;28;20220;-76
2022/01/14 04:17:25;;;;;;;24.00;8.27;;;;;2.30;102963.00;;;;5093928;28;20239;-76
2022/01/14 04:20:14;;;;;;;25.97;9.60;;;;;2.30;102961.00;;;;5097036;28;20239;-73
2022/01/14 04:23:07;;;;;;;21.40;8.73;;;;;2.40;102966.00;;;;5097634;28;20232;-76
2022/01/14 04:25:54;;;;;;;20.40;8.77;;;;;2.40;102965.00;;;;5094247;28;20211;-70
2022/01/14 04:28:41;;;;;;;20.27;8.70;;;;;2.40;102959.00;;;;5100742;28;20224;-75
2022/01/14 04:31:27;;;;;;;24.83;9.70;;;;;2.40;102957.00;;;;5097766;28;20224;-72
2022/01/14 04:34:15;;;;;;;18.57;8.57;;;;;2.40;102952.00;;;;5091670;28;20281;-76
2022/01/14 04:37:03;;;;;;;23.70;8.47;;;;;2.40;102947.00;;;;5063441;28;20231;-70
2022/01/14 04:39:49;;;;;;;23.00;8.83;;;;;2.50;102949.00;;;;5068201;28;20314;-72
2022/01/14 04:42:36;;;;;;;22.37;9.23;;;;;2.40;102948.00;;;;5067406;28;20758;-71
2022/01/14 04:45:41;;;;;;;24.27;9.10;;;;;2.40;102953.00;;;;5062365;28;20237;-72
2022/01/14 04:48:29;;;;;;;20.60;8.97;;;;;2.30;102946.00;;;;5058928;28;20239;-71
2022/01/14 04:51:15;;;;;;;18.07;9.03;;;;;2.50;102949.00;;;;5056540;28;20230;-71
2022/01/14 04:54:03;;;;;;;21.27;8.47;;;;;2.40;102955.00;;;;5075558;28;20385;-70
2022/01/14 04:56:51;;;;;;;20.40;9.03;;;;;2.40;102946.00;;;;5049540;28;20652;-71
2022/01/14 04:59:37;;;;;;;22.93;9.03;;;;;2.50;102964.00;;;;5066822;28;20713;-72
2022/01/14 05:02:25;;;;;;;22.37;9.77;;;;;2.50;102967.00;;;;5064201;28;20318;-71
2022/01/14 05:05:11;;;;;;;21.80;9.93;;;;;2.30;102937.00;;;;5066611;28;20313;-69
2022/01/14 05:07:58;;;;;;;21.87;9.80;;;;;2.30;102948.00;;;;5066941;28;20235;-71
2022/01/14 05:11:01;;;;;;;21.93;9.80;;;;;2.50;102944.00;;;;5066541;28;20302;-70
2022/01/14 05:13:47;;;;;;;23.17;9.40;;;;;2.40;102939.00;;;;5067367;28;20236;-71
2022/01/14 05:16:33;;;;;;;20.67;9.50;;;;;2.40;102945.00;;;;5066232;28;20698;-69
2022/01/14 05:19:20;;;;;;;22.13;8.97;;;;;2.30;102953.00;;;;5066865;28;20237;-68
2022/01/14 05:22:06;;;;;;;20.47;9.57;;;;;2.30;102949.00;;;;5061028;28;20232;-70
2022/01/14 05:24:52;;;;;;;33.47;9.57;;;;;2.40;102947.00;;;;5066405;28;20693;-71
2022/01/14 05:27:41;;;;;;;21.53;9.17;;;;;2.50;102944.00;;;;5066463;28;20239;-71
2022/01/14 05:30:27;;;;;;;20.43;10.00;;;;;2.50;102944.00;;;;5066313;28;20785;-71
2022/01/14 05:33:15;;;;;;;27.57;10.10;;;;;2.40;102931.00;;;;5066281;28;20231;-74
2022/01/14 05:36:01;;;;;;;25.03;10.57;;;;;2.40;102938.00;;;;5066452;28;20267;-70
2022/01/14 05:38:47;;;;;;;24.00;10.60;;;;;2.50;102923.00;;;;5066309;28;20277;-71
2022/01/14 05:41:34;;;;;;;22.57;9.00;;;;;2.50;102927.00;;;;5066119;28;20231;-70
2022/01/14 05:44:23;;;;;;;21.93;9.67;;;;;2.50;102932.00;;;;5063005;28;20232;-69
2022/01/14 05:47:09;;;;;;;21.97;9.50;;;;;2.50;102934.00;;;;5075332;28;20373;-72
2022/01/14 05:49:56;;;;;;;24.83;10.13;;;;;2.50;102935.00;;;;5065563;28;20231;-70
2022/01/14 05:52:42;;;;;;;25.80;10.17;;;;;2.40;102934.00;;;;5066892;28;20385;-70
2022/01/14 05:55:29;;;;;;;21.07;9.87;;;;;2.40;102935.00;;;;5066185;28;20228;-70
2022/01/14 05:58:15;;;;;;;23.67;9.87;;;;;2.50;102916.00;;;;5065942;28;20237;-70
2022/01/14 06:01:02;;;;;;;23.60;10.30;;;;;2.50;102911.00;;;;5065411;28;20366;-70
2022/01/14 06:03:49;;;;;;;18.63;9.63;;;;;2.50;102914.00;;;;5066370;28;20278;-70
2022/01/14 06:06:35;;;;;;;29.17;10.13;;;;;2.40;102912.00;;;;5066254;28;20231;-71
2022/01/14 06:09:22;;;;;;;21.03;9.53;;;;;2.40;102899.00;;;;5062644;28;20306;-71
2022/01/14 06:12:10;;;;;;;24.27;10.77;;;;;2.60;102896.00;;;;5061286;28;20282;-70
2022/01/14 06:14:57;;;;;;;24.43;9.70;;;;;2.40;102887.00;;;;5065523;28;20274;-69
2022/01/14 06:17:45;;;;;;;25.90;10.60;;;;;2.70;102872.00;;;;5066428;28;20224;-69
2022/01/14 06:20:31;;;;;;;27.43;9.87;;;;;2.50;102889.00;;;;5063648;28;20809;-72
2022/01/14 06:23:17;;;;;;;25.40;11.03;;;;;2.50;102899.00;;;;5066155;28;20290;-71
2022/01/14 06:26:04;;;;;;;26.03;11.10;;;;;2.50;102891.00;;;;5065497;28;20686;-70
2022/01/14 06:28:51;;;;;;;24.70;10.03;;;;;2.60;102876.00;;;;5058922;28;20233;-73
2022/01/14 06:31:37;;;;;;;30.63;12.17;;;;;2.50;102877.00;;;;5064631;28;20225;-71
2022/01/14 06:34:25;;;;;;;32.43;11.60;;;;;2.60;102888.00;;;;5065719;28;20220;-70
2022/01/14 06:37:11;;;;;;;26.47;11.93;;;;;2.60;102889.00;;;;5065531;28;20235;-71
2022/01/14 06:39:57;;;;;;;22.33;9.77;;;;;2.50;102891.00;;;;5065242;28;20327;-70
2022/01/14 06:42:44;;;;;;;31.30;11.73;;;;;2.50;102906.00;;;;5057375;28;21102;-70
2022/01/14 06:45:30;;;;;;;24.90;11.37;;;;;2.50;102904.00;;;;5065363;28;20270;-71
2022/01/14 06:48:16;;;;;;;30.00;11.47;;;;;2.40;102890.00;;;;5061666;28;20224;-71
2022/01/14 06:51:04;;;;;;;28.77;11.17;;;;;2.40;102890.00;;;;5064849;28;20627;-70
2022/01/14 06:53:51;;;;;;;25.90;10.43;;;;;2.50;102901.00;;;;5065612;28;20973;-70
2022/01/14 06:56:38;;;;;;;23.40;10.70;;;;;2.40;102885.00;;;;5064551;28;20232;-71
2022/01/14 06:59:30;;;;;;;26.93;10.53;;;;;2.40;102900.00;;;;5065227;28;20231;-70
2022/01/14 07:02:17;;;;;;;24.57;11.13;;;;;2.50;102905.00;;;;5061820;28;20351;-72
2022/01/14 07:05:04;;;;;;;32.67;12.30;;;;;2.60;102905.00;;;;5059799;28;20229;-70
2022/01/14 07:07:52;;;;;;;26.70;10.30;;;;;2.50;102900.00;;;;5063897;28;20363;-71
2022/01/14 07:10:39;;;;;;;28.27;11.33;;;;;2.40;102916.00;;;;5062742;28;20239;-72
2022/01/14 07:13:25;;;;;;;27.23;11.67;;;;;2.40;102905.00;;;;5068357;28;20235;-71
2022/01/14 07:16:11;;;;;;;26.80;11.00;;;;;2.50;102866.00;;;;5062078;28;20278;-73
2022/01/14 07:18:57;;;;;;;28.90;11.93;;;;;2.40;102895.00;;;;5068944;28;20838;-72
2022/01/14 07:21:44;;;;;;;33.07;11.13;;;;;2.60;102900.00;;;;5068830;28;20257;-71
2022/01/14 07:24:31;;;;;;;29.37;11.63;;;;;2.40;102883.00;;;;5069900;28;20232;-72
2022/01/14 07:27:18;;;;;;;24.70;11.27;;;;;2.60;102884.00;;;;5065133;28;20224;-71
2022/01/14 07:30:05;;;;;;;30.33;12.30;;;;;2.50;102885.00;;;;5068297;28;20236;-71
2022/01/14 07:32:52;;;;;;;25.83;10.20;;;;;2.50;102886.00;;;;5069048;28;20235;-73
2022/01/14 07:35:40;;;;;;;30.03;11.50;;;;;2.40;102886.00;;;;5067811;28;20239;-71
2022/01/14 07:38:26;;;;;;;27.90;11.97;;;;;2.60;102883.00;;;;5068587;28;20285;-71
2022/01/14 07:41:14;;;;;;;29.23;12.17;;;;;2.60;102870.00;;;;5073795;28;20236;-72
2022/01/14 07:44:01;;;;;;;23.80;10.80;;;;;2.50;102871.00;;;;5069448;28;20237;-72
2022/01/14 07:46:47;;;;;;;29.33;10.57;;;;;2.60;102877.00;;;;5068860;28;20228;-72
2022/01/14 07:49:34;;;;;;;25.10;10.27;;;;;2.50;102885.00;;;;5068395;28;20575;-72
2022/01/14 07:52:20;;;;;;;25.07;10.80;;;;;2.70;102889.00;;;;5068398;28;20328;-72
2022/01/14 07:55:08;;;;;;;28.40;11.37;;;;;2.60;102896.00;;;;5063404;28;20327;-72
2022/01/14 07:57:56;;;;;;;25.13;10.80;;;;;2.50;102897.00;;;;5067986;28;20359;-73
2022/01/14 08:00:42;;;;;;;26.20;11.00;;;;;2.50;102889.00;;;;5068084;28;20274;-71
2022/01/14 08:03:28;;;;;;;30.37;11.13;;;;;2.50;102890.00;;;;5067745;28;20231;-71
2022/01/14 08:06:15;;;;;;;30.03;10.87;;;;;2.60;102905.00;;;;5068200;28;20294;-71
2022/01/14 08:09:01;;;;;;;25.93;11.40;;;;;2.70;102877.00;;;;5066900;28;20233;-73
2022/01/14 08:11:47;;;;;;;31.33;11.20;;;;;2.80;102887.00;;;;5065917;28;20219;-72
2022/01/14 08:14:36;;;;;;;30.43;11.50;;;;;2.80;102899.00;;;;5062965;28;20675;-73
2022/01/14 08:17:22;;;;;;;30.67;11.20;;;;;2.80;102890.00;;;;5067754;28;20296;-71
2022/01/14 08:20:09;;;;;;;27.50;11.23;;;;;2.90;102880.00;;;;5076433;28;20763;-71
2022/01/14 08:22:55;;;;;;;31.83;11.60;;;;;2.90;102905.00;;;;5067619;28;20251;-71
2022/01/14 08:25:42;;;;;;;25.10;11.30;;;;;2.90;102911.00;;;;5067837;28;20238;-70
2022/01/14 08:28:29;;;;;;;29.13;11.37;;;;;2.80;102920.00;;;;5067515;28;20764;-71
2022/01/14 08:31:18;;;;;;;27.37;10.90;;;;;2.90;102916.00;;;;5067033;28;20251;-72
2022/01/14 08:34:05;;;;;;;26.83;11.43;;;;;3.00;102909.00;;;;5061592;28;20274;-71
2022/01/14 08:36:51;;;;;;;25.83;11.70;;;;;3.00;102931.00;;;;5058264;28;20235;-70
2022/01/14 08:39:39;;;;;;;25.63;11.23;;;;;2.90;102923.00;;;;5066680;28;20242;-71
2022/01/14 08:42:25;;;;;;;27.47;11.70;;;;;2.90;102930.00;;;;5076989;28;20301;-71
2022/01/14 08:45:14;;;;;;;24.37;11.40;;;;;2.90;102931.00;;;;5067043;28;20240;-71
2022/01/14 08:48:02;;;;;;;23.57;10.80;;;;;3.00;102944.00;;;;5067036;28;20289;-71
2022/01/14 08:50:48;;;;;;;21.23;10.67;;;;;3.00;102938.00;;;;5066793;28;20231;-72
2022/01/14 08:53:34;;;;;;;27.33;11.27;;;;;3.00;102949.00;;;;5067784;28;20294;-70
2022/01/14 08:56:21;;;;;;;29.10;11.63;;;;;3.00;102951.00;;;;5066825;28;20234;-68
2022/01/14 08:59:07;;;;;;;26.13;11.00;;;;;2.90;102951.00;;;;5066922;28;20402;-70
2022/01/14 09:01:53;;;;;;;27.00;11.87;;;;;3.00;102963.00;;;;5066515;28;20224;-71
2022/01/14 09:04:41;;;;;;;29.33;11.83;;;;;3.00;102953.00;;;;5066976;28;20310;-70
2022/01/14 09:07:28;;;;;;;27.37;10.13;;;;;3.00;102946.00;;;;5066690;28;20232;-71
2022/01/14 09:10:14;;;;;;;27.70;10.80;;;;;3.10;102950.00;;;;5062394;28;20228;-71
2022/01/14 09:13:00;;;;;;;27.90;11.80;;;;;3.10;102947.00;;;;5065851;28;20286;-71
2022/01/14 09:15:47;;;;;;;28.30;11.23;;;;;3.10;102942.00;;;;5066840;28;20243;-70
2022/01/14 09:18:34;;;;;;;30.57;11.53;;;;;3.20;102950.00;;;;5066282;28;20228;-69
2022/01/14 09:21:21;;;;;;;26.90;11.17;;;;;3.10;102942.00;;;;5066526;28;20289;-72
2022/01/14 09:24:08;;;;;;;31.57;12.17;;;;;3.20;102961.00;;;;5062311;28;20401;-71
2022/01/14 09:26:54;;;;;;;26.43;12.00;;;;;3.20;102960.00;;;;5066459;28;20223;-71
2022/01/14 09:29:41;;;;;;;24.73;10.67;;;;;3.10;102973.00;;;;5066613;28;20273;-71
2022/01/14 09:32:28;;;;;;;25.97;11.00;;;;;3.20;102959.00;;;;5064012;28;20730;-72
2022/01/14 09:35:14;;;;;;;24.80;10.07;;;;;3.20;102960.00;;;;5066333;28;20232;-72
2022/01/14 09:38:02;;;;;;;28.93;11.63;;;;;3.20;102971.00;;;;5066397;28;20228;-72
2022/01/14 09:40:50;;;;;;;25.70;10.40;;;;;3.30;102964.00;;;;5064550;28;20236;-70
2022/01/14 09:43:39;;;;;;;26.40;11.00;;;;;3.20;102959.00;;;;5071015;28;20323;-70
2022/01/14 09:46:27;;;;;;;26.17;10.77;;;;;3.50;102956.00;;;;5065586;28;20246;-71
2022/01/14 09:49:15;;;;;;;25.77;10.73;;;;;3.40;102967.00;;;;5065028;28;22683;-70
2022/01/14 09:52:01;;;;;;;33.27;12.50;;;;;3.40;102963.00;;;;5061070;28;20715;-69
2022/01/14 09:54:51;;;;;;;26.67;11.10;;;;;3.50;102955.00;;;;5065850;28;20231;-72
2022/01/14 09:57:37;;;;;;;25.37;10.37;;;;;3.40;102969.00;;;;5078110;28;20230;-71
2022/01/14 10:00:23;;;;;;;25.43;10.53;;;;;3.40;102970.00;;;;5065624;28;20243;-72
2022/01/14 10:03:20;;;;;;;27.37;11.00;;;;;3.40;102949.00;;;;5065831;28;20231;-71
2022/01/14 10:06:07;;;;;;;25.30;10.63;;;;;3.50;102964.00;;;;5060697;28;21032;-71
2022/01/14 10:09:03;;;;;;;23.80;11.23;;;;;3.40;102970.00;;;;5065384;28;20244;-71
2022/01/14 10:12:04;;;;;;;24.27;11.20;;;;;3.40;102966.00;;;;5058042;28;20248;-71
2022/01/14 10:14:56;;;;;;;26.97;12.03;;;;;3.40;102971.00;;;;5065691;28;20764;-72
2022/01/14 10:17:44;;;;;;;28.53;11.47;;;;;3.40;102971.00;;;;5061702;28;20247;-72
2022/01/14 10:20:38;;;;;;;31.13;11.60;;;;;3.30;102972.00;;;;5061236;28;20441;-72
2022/01/14 10:23:39;;;;;;;26.13;11.03;;;;;3.50;102964.00;;;;5062108;28;20244;-73
2022/01/14 10:26:27;;;;;;;22.40;10.80;;;;;3.40;102958.00;;;;5074244;28;20229;-73
2022/01/14 10:29:15;;;;;;;26.53;11.27;;;;;3.50;102968.00;;;;5065671;28;20924;-72
2022/01/14 10:32:03;;;;;;;28.77;11.10;;;;;3.50;102970.00;;;;5064152;28;20377;-72
2022/01/14 10:34:49;;;;;;;26.93;11.50;;;;;3.50;102967.00;;;;5059631;28;20607;-73
2022/01/14 10:37:36;;;;;;;30.23;12.47;;;;;3.60;102958.00;;;;5068686;28;20226;-72
2022/01/14 10:40:24;;;;;;;31.63;11.47;;;;;3.90;102948.00;;;;5057257;28;20850;-72
2022/01/14 10:43:11;;;;;;;30.10;11.87;;;;;3.70;102957.00;;;;5072737;28;20309;-70
2022/01/14 10:46:15;;;;;;;32.23;12.93;;;;;3.70;102952.00;;;;5072132;28;20231;-73
2022/01/14 10:49:02;;;;;;;35.10;12.70;;;;;3.70;102941.00;;;;5057866;28;20275;-73
2022/01/14 10:52:16;;;;;;;32.30;12.20;;;;;3.70;102941.00;;;;5061111;28;20235;-72
2022/01/14 10:55:03;;;;;;;34.60;13.17;;;;;3.70;102938.00;;;;5069076;28;20621;-72
2022/01/14 10:57:50;;;;;;;31.43;12.50;;;;;3.80;102936.00;;;;5069390;28;20239;-72
2022/01/14 11:01:00;;;;;;;30.67;11.73;;;;;3.70;102945.00;;;;5062671;28;20378;-72
2022/01/14 11:03:52;;;;;;;30.53;11.70;;;;;3.70;102917.00;;;;5068682;28;20265;-73
2022/01/14 11:06:42;;;;;;;31.90;11.73;;;;;3.70;102930.00;;;;5069169;28;20236;-73
2022/01/14 11:09:32;;;;;;;39.30;12.03;;;;;3.70;102937.00;;;;5066261;28;20258;-70
2022/01/14 11:12:19;;;;;;;37.77;13.03;;;;;3.70;102944.00;;;;5069453;28;20232;-71
2022/01/14 11:15:08;;;;;;;33.90;12.60;;;;;3.90;102938.00;;;;5062995;28;20231;-71
2022/01/14 11:17:56;;;;;;;26.97;11.80;;;;;3.80;102934.00;;;;5060835;28;20361;-74
2022/01/14 11:23:47;;;;;;;31.10;12.37;;;;;3.80;102945.00;;;;5062844;28;20628;-73
2022/01/14 11:26:37;;;;;;;33.80;13.80;;;;;3.80;102947.00;;;;5075191;28;20231;-73
2022/01/14 11:29:24;;;;;;;38.00;13.87;;;;;3.80;102952.00;;;;5069357;28;20307;-72
2022/01/14 11:32:11;;;;;;;33.93;12.77;;;;;3.90;102934.00;;;;5062312;28;20718;-72
2022/01/14 11:34:58;;;;;;;33.17;13.10;;;;;3.80;102930.00;;;;5066046;28;20280;-71
2022/01/14 11:37:46;;;;;;;31.60;12.53;;;;;4.00;102924.00;;;;5061326;28;20236;-72
2022/01/14 11:40:51;;;;;;;36.20;13.13;;;;;4.00;102914.00;;;;5066461;28;20722;-70
2022/01/14 11:43:49;;;;;;;28.60;12.70;;;;;3.90;102925.00;;;;5068815;28;20234;-72
2022/01/14 11:46:47;;;;;;;33.20;12.93;;;;;4.10;102911.00;;;;5052851;28;20845;-72
2022/01/14 11:49:38;;;;;;;41.57;14.73;;;;;4.00;102916.00;;;;5067965;28;20311;-71
2022/01/14 11:52:34;;;;;;;37.93;13.70;;;;;4.00;102899.00;;;;5071383;28;20228;-71
2022/01/14 11:55:36;;;;;;;37.73;13.67;;;;;4.00;102909.00;;;;5068271;28;20235;-73
2022/01/14 11:58:23;;;;;;;33.20;13.77;;;;;3.90;102909.00;;;;5068851;28;20305;-71
2022/01/14 12:01:33;;;;;;;39.50;13.77;;;;;4.00;102926.00;;;;5067400;28;20602;-71
2022/01/14 12:04:19;;;;;;;33.90;13.27;;;;;4.00;102915.00;;;;5065150;28;20243;-71
2022/01/14 12:07:06;;;;;;;31.90;13.27;;;;;3.90;102916.00;;;;5062544;28;20359;-72
2022/01/14 12:10:00;;;;;;;35.27;14.10;;;;;4.10;102934.00;;;;5069125;28;20363;-70
2022/01/14 12:12:51;;;;;;;47.60;16.13;;;;;4.10;102929.00;;;;5067553;28;20319;-72
2022/01/14 12:15:46;;;;;;;42.67;15.53;;;;;4.20;102931.00;;;;5067096;28;20231;-71
2022/01/14 12:19:17;;;;;;;41.80;14.97;;;;;4.10;102926.00;;;;5068494;28;20370;-72
2022/01/14 12:22:05;;;;;;;36.63;14.50;;;;;4.20;102915.00;;;;5058891;28;20231;-72
2022/01/14 12:24:53;;;;;;;41.33;15.13;;;;;4.30;102909.00;;;;5053887;28;20320;-72
2022/01/14 12:27:46;;;;;;;38.90;14.17;;;;;4.20;102920.00;;;;5060475;28;20358;-70
2022/01/14 12:30:34;;;;;;;33.23;14.83;;;;;4.20;102887.00;;;;5057482;28;20330;-71
2022/01/14 12:33:41;;;;;;;40.57;14.10;;;;;4.10;102912.00;;;;5078495;28;20725;-71
2022/01/14 12:36:27;;;;;;;43.43;14.53;;;;;4.20;102912.00;;;;5066009;28;20745;-73
2022/01/14 12:39:14;;;;;;;44.80;15.43;;;;;4.10;102890.00;;;;5062146;28;20741;-71
2022/01/14 12:42:01;;;;;;;41.07;14.30;;;;;4.20;102909.00;;;;5062277;28;20236;-72
2022/01/14 12:44:51;;;;;;;45.07;15.23;;;;;4.20;102905.00;;;;5069048;28;20231;-72
2022/01/14 12:47:42;;;;;;;39.43;15.53;;;;;4.30;102887.00;;;;5068349;28;20232;-72
2022/01/14 12:50:30;;;;;;;37.40;14.33;;;;;4.30;102890.00;;;;5059885;28;20237;-73
2022/01/14 12:53:17;;;;;;;40.17;14.53;;;;;4.30;102887.00;;;;5061369;28;20322;-72
2022/01/14 12:56:15;;;;;;;42.10;15.33;;;;;4.30;102879.00;;;;5055792;28;20224;-72
2022/01/14 12:59:06;;;;;;;41.80;14.93;;;;;4.40;102881.00;;;;5056723;28;20240;-73
2022/01/14 13:01:55;;;;;;;46.27;15.77;;;;;4.30;102884.00;;;;5061537;28;20269;-72
2022/01/14 13:04:43;;;;;;;46.80;16.13;;;;;4.50;102886.00;;;;5055971;28;20699;-72
2022/01/14 13:07:30;;;;;;;41.90;16.10;;;;;4.60;102882.00;;;;5060190;28;20323;-73
2022/01/14 13:10:18;;;;;;;48.50;16.13;;;;;4.30;102877.00;;;;5063940;28;20231;-71
2022/01/14 13:13:05;;;;;;;48.87;15.77;;;;;4.30;102877.00;;;;5056989;28;20236;-71
2022/01/14 13:15:54;;;;;;;55.60;16.93;;;;;4.40;102882.00;;;;5060838;28;20232;-72
2022/01/14 13:18:44;;;;;;;46.70;16.57;;;;;4.30;102884.00;;;;5058618;28;20223;-72
2022/01/14 13:21:32;;;;;;;54.70;17.30;;;;;4.30;102896.00;;;;5055841;28;20283;-72
2022/01/14 13:24:20;;;;;;;45.50;16.70;;;;;4.40;102896.00;;;;5069898;28;20232;-72
2022/01/14 13:27:09;;;;;;;54.93;18.07;;;;;4.40;102847.00;;;;5067078;28;20232;-73
2022/01/14 13:29:58;;;;;;;49.37;18.70;;;;;4.30;102897.00;;;;5058898;28;20236;-74
2022/01/14 13:32:46;;;;;;;52.50;18.33;;;;;4.40;102879.00;;;;5067865;28;20231;-72
2022/01/14 13:35:34;;;;;;;54.47;18.07;;;;;4.40;102866.00;;;;5067798;28;20231;-73
2022/01/14 13:38:22;;;;;;;57.77;18.90;;;;;4.60;102871.00;;;;5072915;28;20237;-74
2022/01/14 13:41:09;;;;;;;60.30;19.60;;;;;4.50;102870.00;;;;5069316;28;20244;-72
2022/01/14 13:44:00;;;;;;;65.67;18.73;;;;;4.50;102876.00;;;;5065945;28;20361;-74
2022/01/14 13:46:49;;;;;;;54.77;18.73;;;;;4.50;102867.00;;;;5058847;28;20324;-72
2022/01/14 13:49:35;;;;;;;49.63;17.97;;;;;4.40;102881.00;;;;5066683;28;20301;-72
2022/01/14 13:52:21;;;;;;;59.03;18.33;;;;;4.50;102873.00;;;;5067425;28;20231;-73
2022/01/14 13:55:10;;;;;;;67.00;19.53;;;;;4.50;102870.00;;;;5063103;28;20317;-72